Ana Sayfa
METAR-TAF:

METAR-TAF

Havaalanları :

Langlade County Airport

Antigo, Wisconsin, Amerika Birleşik Devletleri

Enlem: 45-09-15N, Boylam: 89-06-39W, yükseklik: 464 m

Güncel hava durumu gözlemi

Rapor saat 17:15 UTC de 21 dakika önce yapıldı.
Rüzgar doğudan 3 kt
Sıcaklık -2°C
Nem 100%
Basınç 997 hPa
Görüş mesafesi: 16.1 km
500 ft yükseklikte çok bulutlu

METAR: KAIG 091715Z AUTO 09003KT 10SM OVC005 M02/M02 A2943 RMK AO2 T10201022

Saat: 11:36 (17:36 UTC)


TAF: eksik

4.000'den fazla havaalanı için hava durumu gözlemleri ve tahminleri (METAR ve TAF raporları).

Kullanılabilir istasyonlar harita üzerinde sarı ve kırmızı noktalarla gösterilir.

İstasyonun adını görmek için fareyi noktanın üzerinde gezdirin.

Sonrasında hava gözlem ve tahminlerini görmek için tıklayın.

Haritayı değiştirmek için: yaklaştırmak için siyah artı işaretli yeşil düğmeye ve uzaklaştırmak için de eksi işaretli düğmeye hızla tıklayın; bitişik haritalar için yeşil okları kullanın.


METAR-TAF: